Time;durP1;ratioP1;P1;durP2;ratioP2;P2;SDS_P1;SDS_P2;PMS_P1;PMS_P2;Temp;Humidity;BMP_temperature;BMP_pressure;BME280_temperature;BME280_humidity;BME280_pressure;Samples;Min_cycle;Max_cycle;Signal;HPM_P1;HPM_P2
2023/05/17 00:00:53;;;;;;;0.40;0.40;;;;;;;13.13;40.83;91753.31;4954085;29;20054;-77
2023/05/17 00:03:18;;;;;;;1.67;0.82;;;;;;;12.98;41.30;91748.63;4952913;28;20090;-77
2023/05/17 00:05:44;;;;;;;0.38;0.38;;;;;;;12.94;42.55;91755.59;4953478;29;20042;-77
2023/05/17 00:08:10;;;;;;;1.55;0.40;;;;;;;12.82;43.20;91751.03;4953196;29;20041;-77
2023/05/17 00:10:35;;;;;;;0.30;0.30;;;;;;;12.83;42.17;91759.66;4952826;29;20421;-77
2023/05/17 00:13:02;;;;;;;0.50;0.50;;;;;;;12.80;42.53;91761.06;4954767;28;20035;-78
2023/05/17 00:15:28;;;;;;;0.55;0.50;;;;;;;12.79;42.25;91756.13;4955113;29;20569;-77
2023/05/17 00:17:54;;;;;;;0.43;0.43;;;;;;;12.82;41.26;91755.50;4955104;29;20066;-78
2023/05/17 00:20:20;;;;;;;0.45;0.45;;;;;;;12.85;41.48;91755.63;4955230;29;20035;-77
2023/05/17 00:22:46;;;;;;;0.75;0.40;;;;;;;12.79;42.38;91758.75;4954020;28;20035;-78
2023/05/17 00:25:12;;;;;;;0.50;0.50;;;;;;;12.83;41.34;91763.06;4955501;29;20046;-77
2023/05/17 00:27:37;;;;;;;0.45;0.45;;;;;;;12.91;40.25;91753.59;4954889;29;20401;-77
2023/05/17 00:30:03;;;;;;;0.40;0.40;;;;;;;13.00;41.74;91764.84;4952814;29;20044;-78
2023/05/17 00:32:29;;;;;;;0.40;0.40;;;;;;;13.00;40.45;91753.56;4953984;29;20050;-77
2023/05/17 00:34:55;;;;;;;0.40;0.40;;;;;;;12.91;40.85;91750.97;4950663;28;20042;-76
2023/05/17 00:37:21;;;;;;;0.40;0.40;;;;;;;12.93;40.24;91755.94;4953688;29;20043;-77
2023/05/17 00:39:47;;;;;;;0.40;0.40;;;;;;;13.02;40.81;91756.66;4931349;29;20035;-78
2023/05/17 00:42:13;;;;;;;0.30;0.30;;;;;;;12.96;41.82;91761.28;4937342;29;20031;-77
2023/05/17 00:44:40;;;;;;;0.57;0.57;;;;;;;12.93;41.25;91753.31;4946443;29;20039;-77
2023/05/17 00:47:06;;;;;;;0.93;0.40;;;;;;;12.94;41.67;91762.72;4953678;29;20041;-77
2023/05/17 00:49:32;;;;;;;0.50;0.50;;;;;;;13.01;40.20;91755.84;4935784;29;20042;-77
2023/05/17 00:51:58;;;;;;;0.43;0.43;;;;;;;13.17;38.94;91760.56;4952177;29;20031;-77
2023/05/17 00:54:25;;;;;;;0.40;0.40;;;;;;;13.31;39.50;91748.00;4953290;28;20047;-78
2023/05/17 00:56:55;;;;;;;0.50;0.50;;;;;;;13.16;39.90;91766.91;4954069;29;20046;-77
2023/05/17 00:59:22;;;;;;;0.40;0.40;;;;;;;13.04;41.19;91770.22;4952258;29;20090;-77
2023/05/17 01:01:47;;;;;;;0.45;0.45;;;;;;;13.03;39.22;91760.78;4933507;29;20039;-77
2023/05/17 01:04:13;;;;;;;0.40;0.40;;;;;;;13.02;39.25;91757.41;4939339;29;20457;-77
2023/05/17 01:06:39;;;;;;;0.43;0.43;;;;;;;13.01;40.22;91765.59;4952982;29;20037;-78
2023/05/17 01:09:06;;;;;;;0.40;0.40;;;;;;;13.10;39.59;91764.47;4953832;29;20394;-78
2023/05/17 01:11:42;;;;;;;0.40;0.40;;;;;;;13.21;39.35;91772.75;4936516;29;20059;-77
2023/05/17 01:14:32;;;;;;;0.40;0.40;;;;;;;13.30;39.03;91762.97;4933048;29;20027;-77
2023/05/17 01:17:12;;;;;;;0.40;0.40;;;;;;;13.18;39.68;91764.75;4956544;29;20374;-75
2023/05/17 01:20:11;;;;;;;0.40;0.40;;;;;;;13.04;39.95;91763.13;4957653;29;20572;-77
2023/05/17 01:23:07;;;;;;;0.32;0.32;;;;;;;12.93;40.67;91759.31;4952426;29;20057;-77
2023/05/17 01:25:39;;;;;;;0.60;0.45;;;;;;;12.86;41.16;91759.81;4957126;29;20429;-75
2023/05/17 01:28:06;;;;;;;0.50;0.50;;;;;;;12.97;39.41;91760.22;4936445;29;20042;-77
2023/05/17 01:30:33;;;;;;;0.82;0.57;;;;;;;13.05;38.79;91756.00;4930214;29;20042;-76
2023/05/17 01:33:01;;;;;;;0.40;0.40;;;;;;;13.07;38.86;91770.34;4955862;28;20031;-76
2023/05/17 01:35:26;;;;;;;0.43;0.43;;;;;;;13.09;38.67;91765.56;4955632;29;20054;-77
2023/05/17 01:37:53;;;;;;;0.63;0.60;;;;;;;13.12;39.87;91778.03;4937998;29;20035;-77
2023/05/17 01:40:19;;;;;;;0.40;0.40;;;;;;;13.31;39.55;91763.75;4939381;29;20078;-77
2023/05/17 01:42:53;;;;;;;2.38;0.52;;;;;;;13.18;39.29;91770.00;4939390;28;20118;-76
2023/05/17 01:45:34;;;;;;;0.47;0.47;;;;;;;13.15;40.32;91760.09;4939179;29;20031;-77
2023/05/17 01:48:27;;;;;;;6.53;0.50;;;;;;;13.12;39.45;91762.28;4955197;29;20461;-76
2023/05/17 01:50:55;;;;;;;;;;;;;;;12.98;40.51;91767.00;4935956;29;20157;-76
2023/05/17 01:53:31;;;;;;;2.42;0.50;;;;;;;12.98;40.67;91777.50;4952724;28;19918;-77
2023/05/17 01:56:06;;;;;;;0.47;0.47;;;;;;;12.98;39.88;91761.75;4952779;29;20043;-76
2023/05/17 01:58:43;;;;;;;0.40;0.40;;;;;;;13.00;40.21;91756.94;4953594;29;20135;-77
2023/05/17 02:01:10;;;;;;;0.40;0.40;;;;;;;13.01;40.16;91773.47;4953854;29;20036;-76
2023/05/17 02:03:35;;;;;;;0.43;0.43;;;;;;;12.97;40.27;91775.19;4938730;29;20062;-77
2023/05/17 02:06:01;;;;;;;1.05;0.73;;;;;;;13.02;39.85;91764.53;4956543;29;20036;-76
2023/05/17 02:08:26;;;;;;;1.05;0.52;;;;;;;12.97;40.69;91760.22;4951435;29;20040;-76
2023/05/17 02:10:52;;;;;;;0.40;0.40;;;;;;;12.91;40.63;91743.88;4955598;29;20067;-77
2023/05/17 02:13:17;;;;;;;0.38;0.38;;;;;;;12.80;40.60;91749.81;4956424;28;20082;-77
2023/05/17 02:15:43;;;;;;;2.40;0.60;;;;;;;12.97;40.25;91751.56;4956616;29;20079;-77
2023/05/17 02:18:10;;;;;;;1.77;0.40;;;;;;;12.98;40.27;91758.38;4956876;29;20035;-77
2023/05/17 02:20:36;;;;;;;0.75;0.68;;;;;;;12.91;39.95;91754.38;4938905;29;20576;-77
2023/05/17 02:23:01;;;;;;;1.08;0.50;;;;;;;12.97;40.67;91754.97;4939351;28;20036;-77
2023/05/17 02:25:27;;;;;;;0.50;0.50;;;;;;;12.86;41.31;91764.31;4937897;29;20481;-77
2023/05/17 02:27:52;;;;;;;1.10;0.60;;;;;;;12.79;41.50;91774.50;4955443;28;20035;-77
2023/05/17 02:30:21;;;;;;;1.05;0.60;;;;;;;12.82;40.53;91766.78;4938906;29;20039;-77
2023/05/17 02:32:47;;;;;;;0.50;0.50;;;;;;;12.77;40.67;91771.47;4930971;28;20401;-77
2023/05/17 02:35:13;;;;;;;0.80;0.40;;;;;;;12.79;39.81;91771.88;4954466;29;20046;-76
2023/05/17 02:37:39;;;;;;;1.48;0.50;;;;;;;12.82;41.02;91779.16;4954886;29;20060;-76
2023/05/17 02:40:08;;;;;;;0.50;0.50;;;;;;;12.84;40.69;91782.22;4953562;29;20379;-77
2023/05/17 02:42:37;;;;;;;0.40;0.40;;;;;;;12.88;39.30;91764.75;4931482;29;20094;-77
2023/05/17 02:45:03;;;;;;;0.60;0.60;;;;;;;12.79;40.54;91779.75;4938439;29;20532;-78
2023/05/17 02:47:28;;;;;;;2.50;0.50;;;;;;;12.94;40.30;91767.97;4939693;29;20031;-77
2023/05/17 02:49:54;;;;;;;0.60;0.60;;;;;;;12.85;40.34;91783.75;4954161;29;20046;-78
2023/05/17 02:52:20;;;;;;;0.57;0.57;;;;;;;12.80;40.13;91781.31;4954891;29;20051;-77
2023/05/17 02:54:46;;;;;;;0.40;0.40;;;;;;;12.77;40.50;91766.22;4937670;29;20581;-76
2023/05/17 02:57:12;;;;;;;0.50;0.50;;;;;;;12.74;39.44;91772.84;4953135;29;20043;-77
2023/05/17 02:59:38;;;;;;;0.50;0.50;;;;;;;12.83;40.12;91780.69;4952968;29;20043;-78
2023/05/17 03:02:04;;;;;;;0.50;0.50;;;;;;;12.85;39.92;91781.13;4953789;29;20055;-77
2023/05/17 03:04:32;;;;;;;0.50;0.50;;;;;;;12.77;40.24;91779.34;4938215;29;20042;-77
2023/05/17 03:06:58;;;;;;;0.52;0.52;;;;;;;12.79;40.30;91780.56;4953495;29;20043;-77
2023/05/17 03:09:24;;;;;;;0.85;0.65;;;;;;;12.81;39.11;91773.13;4953926;29;20045;-77
2023/05/17 03:11:50;;;;;;;0.50;0.50;;;;;;;12.88;39.19;91783.16;4954756;29;20041;-77
2023/05/17 03:14:23;;;;;;;0.70;0.70;;;;;;;12.84;38.84;91771.72;4956678;28;20046;-77
2023/05/17 03:16:49;;;;;;;0.40;0.40;;;;;;;12.79;40.60;91767.44;4953932;29;20396;-78
2023/05/17 03:19:16;;;;;;;0.57;0.57;;;;;;;12.66;41.55;91782.31;4951528;29;20133;-78
2023/05/17 03:21:42;;;;;;;0.85;0.70;;;;;;;12.79;39.81;91769.25;4938374;29;20035;-77
2023/05/17 03:24:08;;;;;;;0.93;0.80;;;;;;;12.66;40.61;91777.06;4921554;29;20049;-77
2023/05/17 03:26:35;;;;;;;0.40;0.40;;;;;;;12.62;41.33;91763.00;4954293;29;20098;-78
2023/05/17 03:29:01;;;;;;;0.70;0.60;;;;;;;12.66;40.20;91777.06;4923945;29;20043;-77
2023/05/17 03:31:27;;;;;;;0.65;0.60;;;;;;;12.74;40.23;91761.56;4922048;29;20556;-77
2023/05/17 03:33:53;;;;;;;0.77;0.60;;;;;;;12.91;39.66;91754.38;4939458;29;20043;-76
2023/05/17 03:36:19;;;;;;;0.60;0.60;;;;;;;12.76;39.61;91767.28;4921146;29;20069;-77
2023/05/17 03:38:45;;;;;;;0.60;0.60;;;;;;;12.76;39.56;91769.91;4954356;29;20117;-77
2023/05/17 03:41:11;;;;;;;0.93;0.70;;;;;;;12.69;40.80;91755.41;4936083;29;20222;-77
2023/05/17 03:43:36;;;;;;;0.50;0.50;;;;;;;12.68;39.71;91769.63;4954321;28;20046;-77
2023/05/17 03:46:02;;;;;;;2.33;0.50;;;;;;;12.63;40.77;91767.19;4936721;29;20042;-77
2023/05/17 03:48:28;;;;;;;0.80;0.50;;;;;;;12.68;40.20;91766.25;4938074;29;20050;-77
2023/05/17 03:50:54;;;;;;;0.57;0.57;;;;;;;12.83;40.08;91759.66;4953511;29;20035;-77
2023/05/17 03:53:20;;;;;;;0.63;0.63;;;;;;;12.80;39.83;91765.56;4937080;29;20126;-76
2023/05/17 03:55:46;;;;;;;0.95;0.55;;;;;;;12.79;39.87;91782.38;4942909;29;20043;-78
2023/05/17 03:58:12;;;;;;;1.38;0.50;;;;;;;12.84;39.60;91758.59;4949180;29;20707;-78
2023/05/17 04:00:39;;;;;;;0.57;0.50;;;;;;;12.78;40.27;91778.25;4951763;29;20229;-77
2023/05/17 04:03:11;;;;;;;2.30;0.60;;;;;;;12.68;40.51;91774.13;4952525;28;20039;-77
2023/05/17 04:05:40;;;;;;;0.70;0.60;;;;;;;12.75;38.88;91778.88;4938060;29;20047;-77
2023/05/17 04:08:06;;;;;;;0.50;0.50;;;;;;;12.82;37.94;91773.91;4938144;29;20318;-76
2023/05/17 04:10:31;;;;;;;0.30;0.30;;;;;;;12.83;38.69;91791.19;4937903;29;20054;-78
2023/05/17 04:12:57;;;;;;;0.70;0.70;;;;;;;12.89;39.18;91795.19;4952610;28;20595;-76
2023/05/17 04:15:23;;;;;;;0.60;0.60;;;;;;;12.76;39.30;91801.41;4953282;29;20042;-77
2023/05/17 04:17:49;;;;;;;1.90;0.80;;;;;;;12.77;39.56;91797.72;4936220;29;20043;-76
2023/05/17 04:20:14;;;;;;;1.02;0.50;;;;;;;12.68;40.04;91805.63;4921129;29;20565;-77
2023/05/17 04:22:40;;;;;;;0.50;0.50;;;;;;;12.79;39.44;91821.78;4949730;28;20035;-75
2023/05/17 04:25:09;;;;;;;1.08;1.00;;;;;;;12.75;38.86;91826.16;4935909;29;20130;-76
2023/05/17 04:27:35;;;;;;;0.43;0.43;;;;;;;12.73;39.83;91820.44;4951696;29;20134;-77
2023/05/17 04:30:04;;;;;;;3.05;0.75;;;;;;;12.72;40.86;91838.03;4924961;29;20180;-77
2023/05/17 04:32:29;;;;;;;4.60;0.88;;;;;;;12.68;40.12;91827.41;4951810;29;20039;-76
2023/05/17 04:34:56;;;;;;;0.88;0.60;;;;;;;12.67;40.27;91840.84;4953601;28;20118;-76
2023/05/17 04:37:22;;;;;;;1.00;0.75;;;;;;;12.61;41.27;91832.38;4920819;29;20035;-77
2023/05/17 04:39:52;;;;;;;0.95;0.80;;;;;;;12.66;40.19;91845.31;4936310;29;20042;-77
2023/05/17 04:42:18;;;;;;;0.73;0.70;;;;;;;12.76;39.80;91852.06;4934425;29;20042;-76
2023/05/17 04:44:49;;;;;;;3.13;0.80;;;;;;;12.63;40.83;91868.78;4953377;28;20082;-76
2023/05/17 04:47:16;;;;;;;1.08;0.90;;;;;;;12.72;39.39;91861.66;4954737;29;20039;-77
2023/05/17 04:49:42;;;;;;;4.30;0.75;;;;;;;12.73;39.18;91873.72;4957831;28;20389;-76
2023/05/17 04:52:08;;;;;;;2.25;1.02;;;;;;;12.64;39.29;91884.25;4943736;29;20051;-78
2023/05/17 04:54:34;;;;;;;1.85;0.90;;;;;;;12.60;40.31;91869.44;4944230;29;20043;-77
2023/05/17 04:57:00;;;;;;;0.93;0.70;;;;;;;12.67;39.67;91878.34;4940101;29;20460;-78
2023/05/17 04:59:49;;;;;;;2.35;0.95;;;;;;;12.67;39.10;91872.34;4956650;29;20078;-77
2023/05/17 05:02:14;;;;;;;1.73;1.10;;;;;;;12.62;39.87;91883.78;4938820;29;20612;-76
2023/05/17 05:04:40;;;;;;;1.15;0.90;;;;;;;12.68;40.31;91881.78;4938160;29;20039;-76
2023/05/17 05:07:07;;;;;;;1.58;0.80;;;;;;;12.70;40.02;91888.25;4939333;29;20035;-76
2023/05/17 05:09:33;;;;;;;1.55;1.00;;;;;;;12.69;39.86;91891.19;4938400;29;20043;-77
2023/05/17 05:11:58;;;;;;;2.10;1.27;;;;;;;12.56;40.94;91890.28;4938967;29;20180;-76
2023/05/17 05:14:24;;;;;;;2.38;1.15;;;;;;;12.59;41.00;91899.41;4939028;29;20027;-76
2023/05/17 05:16:50;;;;;;;1.05;0.90;;;;;;;12.64;40.59;91899.25;4938796;29;20098;-75
2023/05/17 05:19:15;;;;;;;1.45;1.10;;;;;;;12.60;40.33;91906.94;4939199;29;20035;-76
2023/05/17 05:21:45;;;;;;;1.30;1.00;;;;;;;12.70;40.75;91908.50;4955287;29;20452;-77
2023/05/17 05:24:11;;;;;;;1.92;1.20;;;;;;;12.69;40.75;91906.94;4955731;28;20707;-77
2023/05/17 05:26:36;;;;;;;1.77;0.93;;;;;;;12.67;40.21;91907.25;4958681;29;20043;-77
2023/05/17 05:29:03;;;;;;;4.30;1.17;;;;;;;12.64;40.17;91909.75;4929369;29;20468;-77
2023/05/17 05:31:29;;;;;;;1.15;0.80;;;;;;;12.68;40.84;91908.81;4944408;29;20070;-77
2023/05/17 05:33:58;;;;;;;1.83;1.15;;;;;;;12.77;41.50;91921.16;4942752;29;20059;-77
2023/05/17 05:36:25;;;;;;;3.78;0.95;;;;;;;12.81;41.83;91922.84;4943716;29;20493;-78
2023/05/17 05:38:53;;;;;;;2.60;1.20;;;;;;;12.80;40.19;91920.50;4959451;29;20035;-77
2023/05/17 05:41:19;;;;;;;2.80;1.00;;;;;;;12.74;40.55;91919.91;4959108;28;20039;-78
2023/05/17 05:43:45;;;;;;;1.50;0.90;;;;;;;12.78;40.88;91917.44;4943868;29;20485;-77
2023/05/17 05:46:12;;;;;;;1.38;1.02;;;;;;;12.92;39.16;91918.00;4959885;29;20036;-77
2023/05/17 05:48:40;;;;;;;1.52;1.08;;;;;;;12.95;41.36;91927.09;4944232;29;20047;-77
2023/05/17 05:51:07;;;;;;;2.72;1.23;;;;;;;12.89;40.72;91929.16;4943932;29;20065;-78
2023/05/17 05:53:33;;;;;;;3.08;1.02;;;;;;;12.91;41.53;91914.59;4957750;28;20055;-77
2023/05/17 05:55:59;;;;;;;5.40;1.20;;;;;;;12.97;40.16;91917.84;4923973;29;20043;-77
2023/05/17 05:58:24;;;;;;;2.03;1.10;;;;;;;12.97;41.29;91930.19;4940790;29;20576;-76
2023/05/17 06:00:52;;;;;;;2.55;1.33;;;;;;;12.97;40.27;91933.63;4940024;29;20062;-77
2023/05/17 06:03:17;;;;;;;3.63;1.23;;;;;;;12.94;40.88;91928.97;4943404;29;20032;-79
2023/05/17 06:05:43;;;;;;;2.08;1.17;;;;;;;12.96;40.07;91949.69;4946044;29;20410;-78
2023/05/17 06:08:08;;;;;;;2.35;1.50;;;;;;;13.06;39.12;91947.50;4946403;29;20042;-79
2023/05/17 06:10:34;;;;;;;2.08;1.10;;;;;;;13.08;41.04;91940.06;4945107;29;20051;-79
2023/05/17 06:12:59;;;;;;;1.10;0.98;;;;;;;13.01;40.32;91958.16;4946674;29;20150;-78
2023/05/17 06:15:26;;;;;;;2.83;1.20;;;;;;;13.00;40.99;91958.47;4947453;29;20024;-78
2023/05/17 06:17:51;;;;;;;1.90;1.20;;;;;;;13.10;40.55;91937.91;4959176;29;20044;-77
2023/05/17 06:20:17;;;;;;;2.53;1.40;;;;;;;13.09;40.44;91936.34;4934530;29;20375;-78
2023/05/17 06:22:43;;;;;;;3.83;1.20;;;;;;;13.10;41.70;91953.66;4946116;29;20079;-77
2023/05/17 06:25:11;;;;;;;2.15;1.20;;;;;;;13.10;40.90;91956.28;4946656;29;20071;-78
2023/05/17 06:27:37;;;;;;;1.67;1.15;;;;;;;13.21;41.15;91958.56;4945772;29;20040;-78
2023/05/17 06:30:03;;;;;;;1.92;1.10;;;;;;;13.32;40.29;91954.53;4944959;29;20046;-78
2023/05/17 06:32:29;;;;;;;2.08;1.20;;;;;;;13.29;40.58;91970.94;4944667;29;20111;-78
2023/05/17 06:34:55;;;;;;;2.00;1.30;;;;;;;13.30;40.70;91969.84;4944126;29;20062;-78
2023/05/17 06:37:22;;;;;;;2.25;1.40;;;;;;;13.33;40.91;91971.88;4945219;29;20058;-77
2023/05/17 06:39:50;;;;;;;2.50;1.35;;;;;;;13.30;40.59;91967.97;4943683;29;20043;-78
2023/05/17 06:42:16;;;;;;;2.80;1.30;;;;;;;13.46;39.78;91972.72;4945311;29;20047;-77
2023/05/17 06:44:42;;;;;;;3.58;1.50;;;;;;;13.51;39.86;91977.81;4946636;29;20024;-78
2023/05/17 06:47:07;;;;;;;2.75;1.33;;;;;;;13.51;40.04;91978.59;4946265;29;20150;-78
2023/05/17 06:49:33;;;;;;;3.75;1.23;;;;;;;13.53;39.41;91984.31;4944599;29;20063;-78
2023/05/17 06:52:02;;;;;;;2.25;1.20;;;;;;;13.59;41.94;91986.75;4946434;29;20055;-78
2023/05/17 06:54:31;;;;;;;2.55;1.40;;;;;;;13.74;40.43;91975.69;4964754;28;20053;-78
2023/05/17 06:57:01;;;;;;;1.98;1.20;;;;;;;13.71;40.77;91995.53;4931648;29;20047;-78
2023/05/17 06:59:27;;;;;;;2.03;1.20;;;;;;;13.75;40.24;91990.38;4947869;29;20063;-78
2023/05/17 07:01:52;;;;;;;2.20;1.40;;;;;;;13.75;39.49;92000.91;4965558;29;20406;-78
2023/05/17 07:04:18;;;;;;;1.13;1.02;;;;;;;13.87;38.74;92008.91;4965904;28;20054;-77
2023/05/17 07:06:43;;;;;;;1.85;1.00;;;;;;;13.99;39.62;91996.94;4948474;29;20043;-78
2023/05/17 07:09:09;;;;;;;2.28;1.30;;;;;;;14.00;39.38;92009.75;4949057;29;20417;-77
2023/05/17 07:11:34;;;;;;;3.10;1.38;;;;;;;13.95;38.83;92008.06;4948498;29;20042;-78
2023/05/17 07:14:00;;;;;;;1.90;1.05;;;;;;;13.98;39.10;92019.06;4965378;28;20098;-78
2023/05/17 07:16:26;;;;;;;2.20;1.38;;;;;;;14.00;38.78;92014.25;4947730;29;20054;-78
2023/05/17 07:18:51;;;;;;;1.52;1.10;;;;;;;14.23;40.08;92009.47;4964866;29;20035;-77
2023/05/17 07:21:17;;;;;;;1.90;1.20;;;;;;;14.33;39.85;92019.63;4943240;29;20031;-77
2023/05/17 07:23:42;;;;;;;1.63;1.20;;;;;;;14.26;39.44;92022.78;4942800;29;20050;-78
2023/05/17 07:26:08;;;;;;;2.45;1.40;;;;;;;14.23;40.61;92027.88;4959969;29;20035;-78
2023/05/17 07:28:33;;;;;;;2.40;1.30;;;;;;;14.37;40.48;92031.06;4958045;29;20047;-78
2023/05/17 07:30:59;;;;;;;2.38;1.50;;;;;;;14.43;40.49;92036.91;4942602;29;20031;-78
2023/05/17 07:33:24;;;;;;;2.17;1.30;;;;;;;14.50;40.49;92035.31;4960091;28;20114;-78
2023/05/17 07:35:50;;;;;;;2.20;1.20;;;;;;;14.62;39.37;92033.88;4960248;29;20043;-77
2023/05/17 07:38:15;;;;;;;3.63;1.40;;;;;;;14.75;38.98;92038.88;4942747;29;20106;-78
2023/05/17 07:40:41;;;;;;;5.10;1.40;;;;;;;14.85;38.97;92031.66;4960046;29;20050;-77
2023/05/17 07:43:06;;;;;;;4.90;1.90;;;;;;;15.02;40.76;92036.81;4942239;29;20493;-78
2023/05/17 07:45:32;;;;;;;2.33;1.30;;;;;;;15.18;38.90;92042.25;4942277;29;20498;-77
2023/05/17 07:47:58;;;;;;;6.63;1.83;;;;;;;15.38;38.42;92032.75;4959463;29;20085;-78
2023/05/17 07:50:23;;;;;;;4.28;2.20;;;;;;;15.39;39.73;92042.94;4942987;29;20079;-78
2023/05/17 07:52:49;;;;;;;2.80;1.60;;;;;;;15.54;41.66;92040.78;4958364;28;20358;-78
2023/05/17 07:55:15;;;;;;;2.03;1.27;;;;;;;15.66;38.12;92042.69;4959258;29;20039;-76
2023/05/17 07:57:41;;;;;;;2.65;1.42;;;;;;;15.80;39.86;92043.91;4926962;29;20117;-77
2023/05/17 08:00:07;;;;;;;2.60;1.40;;;;;;;15.77;37.88;92043.81;4927304;29;20039;-78
2023/05/17 08:02:42;;;;;;;1.83;1.17;;;;;;;16.10;39.39;92045.56;4961159;28;20038;-78
2023/05/17 08:05:08;;;;;;;2.85;1.60;;;;;;;16.24;37.34;92038.88;4961119;29;20043;-78
2023/05/17 08:07:33;;;;;;;3.45;1.50;;;;;;;16.33;37.32;92045.91;4961399;29;20035;-77
2023/05/17 08:09:59;;;;;;;3.40;1.30;;;;;;;16.51;34.72;92049.09;4962048;29;20121;-77
2023/05/17 08:12:24;;;;;;;2.20;1.33;;;;;;;16.39;35.95;92061.22;4961511;29;20067;-78
2023/05/17 08:14:50;;;;;;;2.80;1.40;;;;;;;16.61;36.86;92056.53;4960382;28;20031;-78
2023/05/17 08:17:16;;;;;;;5.60;1.80;;;;;;;16.80;35.45;92058.63;4962119;29;20046;-78
2023/05/17 08:19:41;;;;;;;4.32;1.50;;;;;;;16.81;37.89;92053.00;4958252;29;20425;-78
2023/05/17 08:22:08;;;;;;;3.92;1.63;;;;;;;16.68;38.03;92058.63;4957433;29;20393;-78
2023/05/17 08:24:33;;;;;;;2.15;1.30;;;;;;;16.88;36.76;92057.72;4964071;28;20042;-77
2023/05/17 08:26:59;;;;;;;5.10;1.70;;;;;;;16.74;37.01;92054.66;4965541;29;20039;-77
2023/05/17 08:29:24;;;;;;;4.95;1.48;;;;;;;16.85;38.51;92059.16;4964546;29;20031;-78
2023/05/17 08:31:51;;;;;;;3.00;1.50;;;;;;;16.63;38.85;92062.25;4948600;29;20044;-77
2023/05/17 08:34:17;;;;;;;8.75;1.45;;;;;;;16.71;40.50;92064.03;4932400;29;20047;-77
2023/05/17 08:36:43;;;;;;;7.32;2.00;;;;;;;16.63;44.92;92068.31;4966074;29;20091;-77
2023/05/17 08:39:09;;;;;;;4.68;2.00;;;;;;;16.33;44.42;92065.16;4949057;29;20098;-78
2023/05/17 08:41:34;;;;;;;8.82;3.08;;;;;;;16.03;49.06;92073.31;4965641;29;20177;-78
2023/05/17 08:44:03;;;;;;;8.05;2.90;;;;;;;16.09;50.68;92070.44;4950347;29;20035;-79
2023/05/17 08:46:30;;;;;;;10.25;4.22;;;;;;;16.00;53.13;92079.25;4967511;29;20043;-79
2023/05/17 08:48:58;;;;;;;8.32;3.83;;;;;;;15.92;59.31;92085.41;4934851;29;20045;-78
2023/05/17 08:51:25;;;;;;;9.07;4.90;;;;;;;15.53;63.68;92092.75;4966262;29;20031;-79
2023/05/17 08:53:50;;;;;;;9.90;4.85;;;;;;;15.34;66.49;92084.59;4966837;28;20043;-78
2023/05/17 08:56:18;;;;;;;8.88;4.65;;;;;;;15.01;67.34;92095.09;4965272;29;20043;-79
2023/05/17 08:58:47;;;;;;;6.95;3.78;;;;;;;15.20;65.90;92082.22;4965916;29;20043;-79
2023/05/17 09:01:15;;;;;;;6.82;4.05;;;;;;;15.29;69.07;92087.41;4933495;29;20043;-79
2023/05/17 09:03:45;;;;;;;6.97;4.00;;;;;;;15.15;66.92;92088.47;4965860;28;20043;-78
2023/05/17 09:06:12;;;;;;;7.32;4.25;;;;;;;14.73;70.82;92091.13;4963553;29;20031;-79
2023/05/17 09:08:38;;;;;;;10.93;6.53;;;;;;;14.62;73.66;92089.94;4964138;29;20402;-77
2023/05/17 09:11:04;;;;;;;9.05;3.67;;;;;;;14.43;67.32;92100.09;4965554;29;20044;-78
2023/05/17 09:13:29;;;;;;;8.35;4.07;;;;;;;14.41;75.53;92094.38;4965669;28;20039;-79
2023/05/17 09:15:55;;;;;;;7.38;4.78;;;;;;;14.51;79.01;92096.66;4964545;29;20386;-78
2023/05/17 09:18:29;;;;;;;8.07;4.65;;;;;;;14.12;78.25;92091.44;4964357;29;20468;-78
2023/05/17 09:20:55;;;;;;;7.07;3.90;;;;;;;14.04;78.27;92109.91;4931992;29;20039;-78
2023/05/17 09:23:21;;;;;;;11.93;4.72;;;;;;;13.80;82.09;92105.94;4964087;28;20039;-77
2023/05/17 09:25:47;;;;;;;11.80;5.07;;;;;;;13.60;83.94;92106.63;4947748;29;20094;-78
2023/05/17 09:28:13;;;;;;;7.60;4.78;;;;;;;13.38;85.99;92113.66;4964453;29;20252;-79
2023/05/17 09:30:39;;;;;;;10.68;5.65;;;;;;;13.45;87.08;92118.44;4965976;29;20188;-79
2023/05/17 09:33:06;;;;;;;9.55;4.75;;;;;;;13.53;87.38;92128.94;4964997;28;20043;-78
2023/05/17 09:35:33;;;;;;;10.38;5.45;;;;;;;13.52;88.67;92137.88;4964405;28;20043;-78
2023/05/17 09:38:06;;;;;;;9.52;5.30;;;;;;;13.55;86.94;92147.00;4965604;29;20118;-77
2023/05/17 09:40:32;;;;;;;10.02;5.38;;;;;;;13.60;89.74;92146.88;4966136;29;20070;-77
2023/05/17 09:42:59;;;;;;;12.02;6.28;;;;;;;13.62;91.52;92146.53;4946897;28;20039;-77
2023/05/17 09:45:25;;;;;;;13.48;6.80;;;;;;;13.43;96.13;92155.53;4946977;29;20043;-79
2023/05/17 09:47:51;;;;;;;9.30;5.45;;;;;;;13.31;95.16;92150.91;4948073;29;20043;-79
2023/05/17 09:50:20;;;;;;;15.98;7.07;;;;;;;13.14;98.46;92158.78;4946923;29;20047;-78
2023/05/17 09:52:46;;;;;;;11.02;6.88;;;;;;;12.99;100.00;92162.66;4946916;28;20046;-79
2023/05/17 09:55:12;;;;;;;10.25;6.00;;;;;;;13.02;98.67;92163.88;4963703;29;20062;-78
2023/05/17 09:57:39;;;;;;;12.85;7.95;;;;;;;12.79;100.00;92163.22;4962595;29;20445;-78
2023/05/17 10:00:10;;;;;;;14.30;8.00;;;;;;;12.67;100.00;92177.72;4963578;29;20074;-78
2023/05/17 10:02:42;;;;;;;15.80;7.78;;;;;;;12.58;100.00;92176.16;4943175;29;20425;-79
2023/05/17 10:05:10;;;;;;;13.50;6.38;;;;;;;12.69;100.00;92180.03;4943709;29;20070;-77
2023/05/17 10:07:37;;;;;;;11.43;7.38;;;;;;;12.74;100.00;92187.78;4943832;29;20032;-78
2023/05/17 10:10:05;;;;;;;13.60;9.15;;;;;;;12.42;100.00;92197.56;4927377;29;20090;-78
2023/05/17 10:12:37;;;;;;;16.65;9.60;;;;;;;12.37;100.00;92189.84;4942537;29;20050;-77
2023/05/17 10:15:04;;;;;;;16.48;9.35;;;;;;;12.41;100.00;92196.03;4945485;29;20035;-78
2023/05/17 10:17:31;;;;;;;20.25;11.13;;;;;;;12.38;100.00;92207.13;4943101;29;20170;-77
2023/05/17 10:19:57;;;;;;;28.90;15.63;;;;;;;12.46;100.00;92203.00;4944556;29;20052;-77
2023/05/17 10:22:22;;;;;;;18.98;11.15;;;;;;;12.60;100.00;92197.63;4944318;29;20038;-77
2023/05/17 10:24:50;;;;;;;34.55;16.85;;;;;;;12.68;100.00;92199.53;4944155;29;20102;-78
2023/05/17 10:27:16;;;;;;;15.52;9.65;;;;;;;12.50;100.00;92207.34;4944648;29;20043;-78
2023/05/17 10:29:42;;;;;;;22.45;9.95;;;;;;;12.28;100.00;92213.44;4945080;29;20039;-79
2023/05/17 10:32:09;;;;;;;15.65;10.70;;;;;;;12.31;100.00;92211.28;4944305;29;20040;-77
2023/05/17 10:34:37;;;;;;;19.35;11.52;;;;;;;12.21;100.00;92217.56;4944461;29;20055;-78
2023/05/17 10:37:04;;;;;;;15.10;9.18;;;;;;;12.27;100.00;92214.53;4927874;29;20032;-78
2023/05/17 10:39:33;;;;;;;17.70;10.10;;;;;;;12.22;100.00;92217.25;4941918;29;20058;-79
2023/05/17 10:42:01;;;;;;;15.48;10.60;;;;;;;12.20;100.00;92218.63;4944191;29;20039;-79
2023/05/17 10:44:32;;;;;;;16.83;9.75;;;;;;;12.21;100.00;92228.06;4926555;29;20038;-78
2023/05/17 10:47:01;;;;;;;17.35;9.93;;;;;;;12.08;100.00;92224.44;4941338;29;20043;-78
2023/05/17 10:49:31;;;;;;;13.65;9.68;;;;;;;12.33;100.00;92228.28;4943034;29;20047;-78
2023/05/17 10:51:59;;;;;;;16.13;10.27;;;;;;;12.36;100.00;92226.88;4941502;29;20043;-78
2023/05/17 10:54:35;;;;;;;8.90;5.45;;;;;;;12.27;100.00;92221.59;4943713;29;20050;-79
2023/05/17 10:57:04;;;;;;;14.85;9.40;;;;;;;12.37;100.00;92226.59;4941700;29;20044;-78
2023/05/17 10:59:31;;;;;;;14.02;9.10;;;;;;;12.36;100.00;92232.13;4939500;29;20055;-78
2023/05/17 11:02:03;;;;;;;14.13;9.30;;;;;;;12.36;100.00;92234.75;4940817;29;20126;-78
2023/05/17 11:04:39;;;;;;;14.00;8.60;;;;;;;12.45;100.00;92240.81;4942055;29;20087;-78
2023/05/17 11:07:18;;;;;;;14.93;9.10;;;;;;;12.73;100.00;92243.25;4925056;29;20043;-78
2023/05/17 11:09:48;;;;;;;13.27;8.43;;;;;;;12.85;100.00;92246.81;4941575;29;20036;-78
2023/05/17 11:12:15;;;;;;;12.50;8.90;;;;;;;12.93;100.00;92234.81;4925484;29;20036;-79
2023/05/17 11:14:43;;;;;;;17.25;8.82;;;;;;;13.24;100.00;92242.59;4943258;29;20063;-79
2023/05/17 11:17:45;;;;;;;17.73;8.98;;;;;;;13.09;100.00;92254.28;4963550;29;20490;-79
2023/05/17 11:20:14;;;;;;;15.40;9.35;;;;;;;13.10;100.00;92247.97;4931804;29;20043;-78
2023/05/17 11:22:48;;;;;;;13.95;8.40;;;;;;;13.20;100.00;92248.75;4946049;28;20106;-79
2023/05/17 11:25:15;;;;;;;14.40;9.05;;;;;;;13.00;100.00;92247.50;4946409;29;20027;-79
2023/05/17 11:27:51;;;;;;;11.98;7.38;;;;;;;12.94;100.00;92252.09;4962555;29;20035;-79
2023/05/17 11:30:25;;;;;;;11.98;8.00;;;;;;;12.73;100.00;92246.66;4961616;29;20039;-79
2023/05/17 11:32:53;;;;;;;12.23;7.82;;;;;;;12.77;100.00;92246.81;4962258;28;20031;-79